Tyre, New York
Current Conditions -  °F | °C
As of 11:53 PM on Sunday 21 Dec 2014 (Local Time) from KPEO Reporting Station
Overcast Overcast  
Wind Chill: 20°   Ceiling: 2600
Heat Index: 27°   Visibility: 10mi
Dew Point: 21°   Wind: 6mph
Humidity: 78%   Direction: 170°S
Pressure: 30.29"   Gusts: NA
Location:  42.9691°N, 76.7961°W
Report Text: KPEO 220453Z AUTO 17005KT 10SM OVC026 M03/M06 A3029 RMK AO2 SLP268 T10281061 400111033
Loading
Personal Weather Stations






























Interactive Weather Map New forecast layout! Learn more

10-Day Weather Forecast

Advertisements
Track Severe Weather on mobile